Latest Weather Observations for Parafield

IDS60801

Issued at 3:02 pm CDT Monday 2 March 2015 (issued every 30 minutes, with the page automatically refreshed every 10 minutes)

About weather observations | Map of weather stations | Latest weather observations for SA | Other Formats
Station Details ID: 023013 Name: PARAFIELD AIRPORT Lat: -34.80 Lon: 138.63 Height: 9.5 m
Data from the previous 72 hours. | See also: Recent months at Parafield
Date/Time
CDT
Temp
°C
App
Temp
°C
Dew
Point
Rel
Hum
%
Delta-T
°C
Wind Press
QNH
hPa
Press
MSL
hPa
Rain
since 9 am
mm
Dir
 
Spd
km/h
Gust
km/h
Spd
kts
Gust
kts
02/03:00pm 27.6 22.9 3.3 21 12.1 WSW 17 26 9 14 1012.9 1012.9 0.0
02/02:30pm 28.2 25.0 3.1 20 12.5 W 9 17 5 9 1013.0 1013.0 0.0
02/02:00pm 27.3 24.6 2.4 20 12.2 SW 6 15 3 8 1013.0 1013.0 0.0
02/01:30pm 27.5 24.2 2.6 20 12.2 NNE 9 13 5 7 1013.4 1013.4 0.0
02/01:00pm 27.2 22.7 4.3 23 11.6 N 17 20 9 11 1013.7 1013.7 0.0
02/12:30pm 27.1 22.4 6.0 26 11.0 N 20 30 11 16 1014.1 1014.1 0.0
02/12:00pm 26.8 21.9 5.1 25 11.1 N 20 32 11 17 1014.4 1014.4 0.0
02/11:30am 26.1 21.2 5.1 26 10.7 NNE 20 30 11 16 1014.5 1014.5 0.0
02/11:00am 25.7 22.5 6.8 30 9.9 NE 13 19 7 10 1015.2 1015.2 0.0
02/10:30am 24.6 21.0 6.8 32 9.2 NNE 15 24 8 13 1015.8 1015.8 0.0
02/10:00am 22.9 19.3 6.6 35 8.4 NE 15 20 8 11 1016.0 1016.0 0.0
02/09:30am 22.2 18.6 6.8 37 7.9 NNE 15 19 8 10 1015.7 1015.7 0.0
02/09:00am 20.9 18.1 6.8 40 7.2 NE 11 17 6 9 1015.6 1015.6 0.0
02/08:30am 19.8 17.7 8.2 47 6.0 NNW 9 13 5 7 1015.5 1015.5 0.0
02/08:00am 19.0 16.4 7.8 48 5.7 NNE 11 19 6 10 1016.1 1016.1 0.0
02/07:30am 18.2 15.9 7.6 50 5.4 NE 9 15 5 8 1015.5 1015.5 0.0
02/07:00am 17.9 15.3 7.6 51 5.2 NE 11 20 6 11 1015.0 1015.0 0.0
02/06:30am 18.3 16.1 7.7 50 5.4 NE 9 17 5 9 1014.9 1014.9 0.0
02/06:00am 17.4 15.9 8.3 55 4.6 S 6 11 3 6 1014.6 1014.6 0.0
02/05:30am 17.4 15.4 8.5 56 4.6 ENE 9 15 5 8 1014.0 1014.0 0.0
02/05:00am 17.4 15.7 8.5 56 4.6 ENE 7 13 4 7 1013.8 1013.8 0.0
02/04:30am 16.8 14.8 8.8 59 4.1 E 9 15 5 8 1014.0 1014.0 0.0
02/04:00am 16.3 14.5 9.3 63 3.6 E 9 13 5 7 1014.3 1014.3 0.0
02/03:30am 15.7 13.9 9.4 66 3.3 SE 9 17 5 9 1014.6 1014.6 0.0
02/03:00am 15.7 13.6 9.6 67 3.2 SE 11 19 6 10 1014.8 1014.8 0.0
02/02:30am 16.0 12.4 9.7 66 3.3 SE 19 28 10 15 1015.3 1015.3 0.0
02/02:00am 16.2 13.0 9.8 66 3.3 SSE 17 26 9 14 1015.7 1015.7 0.0
02/01:30am 16.3 13.4 9.5 64 3.5 SE 15 24 8 13 1015.7 1015.7 0.0
02/01:00am 16.5 14.9 10.1 66 3.4 S 9 17 5 9 1016.0 1016.0 0.0
02/12:30am 16.0 14.9 9.9 67 3.2 SE 6 15 3 8 1016.0 1016.0 0.0
02/12:00am 16.3 14.2 9.9 66 3.3 SSE 11 24 6 13 1016.3 1016.3 0.0
 
Date/Time
CDT
Temp
°C
App
Temp
°C
Dew
Point
Rel
Hum
%
Delta-T
°C
Wind Press
QNH
hPa
Press
MSL
hPa
Rain
since 9 am
mm
Dir
 
Spd
km/h
Gust
km/h
Spd
kts
Gust
kts
01/11:30pm 16.4 13.5 9.8 65 3.4 SSE 15 24 8 13 1016.6 1016.6 0.0
01/11:00pm 16.0 13.5 9.7 66 3.3 SE 13 17 7 9 1016.8 1016.8 0.0
01/10:30pm 16.0 14.6 9.7 66 3.3 SSE 7 13 4 7 1017.1 1017.1 0.0
01/10:00pm 16.3 13.9 9.9 66 3.4 S 13 17 7 9 1017.2 1017.2 0.0
01/09:30pm 17.4 14.2 9.8 61 4.0 SSE 17 20 9 11 1017.2 1017.2 0.0
01/09:00pm 18.4 15.2 10.0 58 4.5 SSE 17 24 9 13 1017.0 1017.0 0.0
01/08:30pm 18.7 15.5 10.0 57 4.6 SSE 17 20 9 11 1016.3 1016.3 0.0
01/08:00pm 19.9 16.0 9.5 51 5.5 SSE 20 24 11 13 1015.8 1015.8 0.0
01/07:30pm 21.3 17.7 8.2 43 6.8 SE 17 20 9 11 1015.3 1015.3 0.0
01/07:00pm 22.2 17.0 7.2 38 7.7 SE 24 30 13 16 1015.3 1015.3 0.0
01/06:30pm 23.6 19.2 6.4 33 8.8 SE 19 26 10 14 1015.3 1015.3 0.0
01/06:00pm 23.8 19.1 6.1 32 9.0 SSE 20 26 11 14 1015.1 1015.1 0.0
01/05:30pm 24.5 19.9 6.7 32 9.2 SSE 20 30 11 16 1014.8 1014.8 0.0
01/05:00pm 24.8 19.9 7.0 32 9.3 SSE 22 30 12 16 1014.8 1014.8 0.0
01/04:30pm 24.8 20.9 7.0 32 9.3 SE 17 26 9 14 1015.3 1015.3 0.0
01/04:00pm 25.5 20.5 8.1 33 9.3 S 24 35 13 19 1014.9 1014.9 0.0
01/03:30pm 25.4 20.5 8.4 34 9.1 SSE 24 39 13 21 1015.0 1015.0 0.0
01/03:00pm 25.2 20.4 7.3 32 9.4 SSE 22 30 12 16 1015.3 1015.3 0.0
01/02:30pm 25.5 22.4 7.1 31 9.7 SE 13 30 7 16 1015.5 1015.5 0.0
01/02:00pm 25.0 21.0 6.7 31 9.5 ESE 17 24 9 13 1015.6 1015.6 0.0
01/01:30pm 24.6 21.3 6.4 31 9.4 S 13 26 7 14 1016.0 1016.0 0.0
01/01:00pm 24.2 21.1 7.4 34 8.8 S 13 26 7 14 1016.4 1016.4 0.0
01/12:30pm 24.0 19.6 7.6 35 8.6 SSW 20 28 11 15 1016.8 1016.8 0.0
01/12:00pm 22.9 18.7 7.4 37 8.0 SSW 19 22 10 12 1017.0 1017.0 0.0
01/11:30am 22.2 19.3 8.3 41 7.3 SSE 13 22 7 12 1017.2 1017.2 0.0
01/11:00am 20.9 16.7 8.2 44 6.6 SSW 20 32 11 17 1017.1 1017.1 0.0
01/10:30am 20.7 16.1 8.0 44 6.6 S 22 32 12 17 1016.9 1016.9 0.0
01/10:00am 20.0 15.7 7.7 45 6.3 SSE 20 32 11 17 1016.8 1016.8 0.0
01/09:30am 18.4 14.2 8.4 52 5.1 S 20 28 11 15 1016.7 1016.7 0.0
01/09:00am 18.8 14.7 8.7 52 5.2 S 20 30 11 16 1016.2 1016.2 0.0
01/08:30am 18.0 14.3 8.0 52 5.1 S 17 22 9 12 1015.9 1015.9 0.0
01/08:00am 15.2 12.8 8.7 65 3.3 S 11 17 6 9 1015.8 1015.8 0.0
01/07:30am 15.2 13.3 7.7 61 3.7 S 7 11 4 6 1015.3 1015.3 0.0
01/07:00am 13.6 11.5 6.7 63 3.3 S 7 7 4 4 1014.7 1014.7 0.0
01/06:30am 14.2 12.1 6.8 61 3.6 SSE 7 9 4 5 1014.3 1014.3 0.0
01/06:00am 14.2 11.3 6.3 59 3.8 S 11 13 6 7 1013.9 1013.9 0.0
01/05:30am 16.6 13.0 6.7 52 4.9 S 15 19 8 10 1013.6 1013.6 0.0
01/05:00am 16.0 11.1 6.7 54 4.6 S 22 35 12 19 1013.4 1013.4 0.0
01/04:30am 17.3 12.1 8.7 57 4.4 S 26 35 14 19 1012.8 1012.8 0.0
01/04:00am 17.2 12.7 9.9 62 3.8 S 24 33 13 18 1012.5 1012.5 0.0
01/03:30am 17.6 13.4 9.8 60 4.1 SSW 22 28 12 15 1012.2 1012.2 0.0
01/03:00am 17.8 14.2 10.7 63 3.8 SSW 20 30 11 16 1012.1 1012.1 0.0
01/02:30am 17.8 14.9 11.1 65 3.6 SSW 17 28 9 15 1012.0 1012.0 0.0
01/02:00am 17.1 14.3 11.2 68 3.2 SSW 17 22 9 12 1012.1 1012.1 0.0
01/01:30am 17.8 14.8 11.8 68 3.3 S 19 26 10 14 1012.2 1012.2 0.0
01/01:00am 18.0 15.6 12.5 70 3.1 S 17 26 9 14 1012.2 1012.2 0.0
01/12:30am 17.9 15.3 12.1 69 3.2 S 17 22 9 12 1012.1 1012.1 0.0
01/12:00am 17.5 14.8 11.8 69 3.1 S 17 24 9 13 1012.2 1012.2 0.0
 
Date/Time
CDT
Temp
°C
App
Temp
°C
Dew
Point
Rel
Hum
%
Delta-T
°C
Wind Press
QNH
hPa
Press
MSL
hPa
Rain
since 9 am
mm
Dir
 
Spd
km/h
Gust
km/h
Spd
kts
Gust
kts
28/11:30pm 17.8 14.6 11.8 68 3.3 SSW 20 26 11 14 1012.1 1012.1 0.0
28/11:00pm 18.2 13.0 11.5 65 3.7 SSW 30 41 16 22 1012.0 1012.0 0.0
28/10:30pm 18.6 14.3 12.1 66 3.6 SSW 26 35 14 19 1011.8 1011.8 0.0
28/10:00pm 19.2 15.4 12.5 65 3.7 SSW 24 37 13 20 1011.4 1011.4 0.0
28/09:30pm 19.8 15.8 13.0 65 3.9 SSW 26 35 14 19 1010.7 1010.7 0.0
28/09:00pm 20.5 16.5 14.2 67 3.7 SSW 28 37 15 20 1010.0 1010.0 0.0
28/08:30pm 20.9 16.8 15.0 69 3.5 SW 30 43 16 23 1009.2 1009.2 0.0
28/08:00pm 21.5 17.6 15.6 69 3.5 SSW 30 41 16 22 1008.2 1008.2 0.0
28/07:30pm 21.9 17.1 15.5 67 3.8 SW 35 46 19 25 1007.6 1007.6 0.0
28/07:00pm 22.4 17.6 15.7 66 4.0 SW 35 44 19 24 1006.9 1006.9 0.0
28/06:30pm 24.4 21.4 15.9 59 5.2 SW 26 37 14 20 1006.6 1006.6 0.0
28/06:00pm 25.2 21.6 15.2 54 6.0 SSW 28 39 15 21 1006.1 1006.1 0.0
28/05:30pm 25.3 20.4 14.4 50 6.5 SW 33 44 18 24 1006.1 1006.1 0.0
28/05:00pm 26.9 22.7 14.6 46 7.4 SW 30 43 16 23 1005.3 1005.3 0.0
28/04:33pm 27.3 22.8 15.0 47 7.4 SW 32 50 17 27 1004.5 1004.5 0.0
28/04:30pm 28.7 24.3 15.2 43 8.3 SW 32 44 17 24 1004.5 1004.5 0.0
28/04:00pm 28.2 24.7 15.5 46 7.8 SSW 28 39 15 21 1004.3 1004.3 0.0
28/03:30pm 29.0 24.7 15.9 45 8.1 SSW 33 44 18 24 1004.0 1004.0 0.0
28/03:00pm 28.9 24.7 13.6 39 9.1 SW 28 39 15 21 1004.6 1004.6 0.0
28/02:30pm 30.5 26.8 15.0 39 9.5 SW 28 35 15 19 1004.0 1004.0 0.0
28/02:00pm 31.4 27.5 14.5 35 10.3 SW 28 35 15 19 1003.7 1003.7 0.0
28/01:30pm 31.9 27.3 12.2 30 11.7 W 28 37 15 20 1003.7 1003.7 0.0
28/01:00pm 33.3 28.9 11.8 27 12.7 WSW 26 35 14 19 1003.7 1003.7 0.0
28/12:30pm 34.7 29.9 11.8 25 13.6 W 28 37 15 20 1003.9 1003.9 0.0
28/12:00pm 34.4 30.5 12.1 26 13.3 WNW 24 35 13 19 1003.9 1003.9 0.0
28/11:30am 33.8 29.2 11.0 25 13.4 WNW 26 33 14 18 1004.3 1004.3 0.0
28/11:00am 33.1 30.5 12.1 27 12.4 WNW 17 24 9 13 1004.1 1004.1 0.0
28/10:30am 33.0 29.9 11.5 27 12.7 NNW 19 26 10 14 1004.0 1004.0 0.0
28/10:00am 30.9 28.2 12.8 33 10.7 N 19 26 10 14 1004.1 1004.1 0.0
28/09:30am 29.7 25.2 12.6 35 10.1 NNE 28 33 15 18 1004.0 1004.0 0.0
28/09:00am 29.6 26.3 12.9 35 9.9 NNE 22 30 12 16 1004.0 1004.0 0.0
28/08:30am 28.4 24.4 13.1 39 9.1 NNE 26 35 14 19 1003.9 1003.9 0.0
28/08:00am 27.7 23.7 12.9 40 8.7 NNE 26 35 14 19 1003.7 1003.7 0.0
28/07:30am 28.5 24.3 12.4 37 9.4 NNE 26 37 14 20 1003.4 1003.4 0.0
28/07:00am 28.4 24.7 12.7 38 9.2 NNE 24 33 13 18 1003.2 1003.2 0.0
28/06:30am 27.8 23.3 12.6 39 8.9 NE 28 37 15 20 1003.1 1003.1 0.0
28/06:00am 27.1 24.1 12.7 41 8.4 NE 20 28 11 15 1003.0 1003.0 0.0
28/05:30am 26.9 23.8 12.2 40 8.5 NE 20 28 11 15 1002.8 1002.8 0.0
28/05:00am 26.9 23.5 11.4 38 8.8 NE 20 28 11 15 1002.6 1002.6 0.0
28/04:30am 26.8 22.9 10.9 37 9.0 ENE 22 30 12 16 1002.6 1002.6 0.0
28/04:00am 26.9 22.9 11.8 39 8.7 ENE 24 32 13 17 1002.8 1002.8 0.0
28/03:30am 26.7 23.1 12.0 40 8.5 ENE 22 28 12 15 1003.3 1003.3 0.0
28/03:00am 26.3 21.4 12.4 42 8.1 ENE 30 39 16 21 1003.4 1003.4 0.0
28/02:30am 26.1 21.1 12.2 42 8.0 ENE 30 37 16 20 1004.2 1004.2 0.0
28/02:00am 26.0 20.8 12.8 44 7.7 E 32 43 17 23 1004.4 1004.4 0.0
28/01:30am 26.0 19.8 12.8 44 7.7 E 37 48 20 26 1004.5 1004.5 0.0
28/01:00am 26.2 21.7 12.6 43 7.9 E 28 37 15 20 1006.0 1006.0 0.0
28/12:30am 26.0 20.6 12.1 42 8.0 E 32 41 17 22 1006.3 1006.3 0.0
28/12:00am 25.7 19.7 12.2 43 7.8 ESE 35 50 19 27 1006.4 1006.4 0.0
 
Date/Time
CDT
Temp
°C
App
Temp
°C
Dew
Point
Rel
Hum
%
Delta-T
°C
Wind Press
QNH
hPa
Press
MSL
hPa
Rain
since 9 am
mm
Dir
 
Spd
km/h
Gust
km/h
Spd
kts
Gust
kts
27/11:30pm 26.0 20.8 12.8 44 7.7 ESE 32 43 17 23 1007.2 1007.2 0.0
27/11:00pm 26.3 23.7 12.0 41 8.2 ESE 17 28 9 15 1008.6 1008.6 0.0
27/10:30pm 26.7 25.4 11.2 38 8.8 ENE 9 13 5 7 1008.6 1008.6 0.0
27/10:00pm 26.7 25.1 11.6 39 8.6 SE 11 19 6 10 1008.6 1008.6 0.0
27/09:30pm 28.0 25.2 11.5 35 9.5 SSE 17 26 9 14 1007.8 1007.8 0.0
27/09:00pm 29.1 24.8 12.1 35 9.9 ESE 26 32 14 17 1006.8 1006.8 0.0
27/08:30pm 30.0 28.4 12.9 35 10.1 S 13 19 7 10 1006.9 1006.9 0.0
27/08:00pm 30.8 27.8 12.7 33 10.7 SW 20 30 11 16 1006.1 1006.1 0.0
27/07:30pm 31.6 29.4 10.9 28 12.0 SSW 13 17 7 9 1005.6 1005.6 0.0
27/07:00pm 32.3 29.8 10.9 27 12.4 S 15 20 8 11 1005.4 1005.4 0.0
27/06:30pm 33.2 30.2 10.5 25 13.2 S 17 20 9 11 1005.3 1005.3 0.0
27/06:00pm 33.7 31.0 10.3 24 13.6 S 15 17 8 9 1005.3 1005.3 0.0
27/05:30pm 34.1 31.9 9.4 22 14.1 WSW 11 19 6 10 1005.4 1005.4 0.0
27/05:00pm 34.5 33.0 10.4 23 14.0 WSW 9 17 5 9 1005.4 1005.4 0.0
27/04:30pm 33.8 32.6 10.4 24 13.6 WSW 7 13 4 7 1005.6 1005.6 0.0
27/04:00pm 33.8 31.9 10.4 24 13.5 SW 11 13 6 7 1005.8 1005.8 0.0
27/03:30pm 33.8 31.1 10.4 24 13.6 WSW 15 20 8 11 1006.4 1006.4 0.0

Other Formats:

Comma delimited format used in spreadsheet applications
http://www.bom.gov.au/fwo/IDS60801/IDS60801.95677.axf

JavaScript Object Notation format (JSON) in row-major order
http://www.bom.gov.au/fwo/IDS60801/IDS60801.95677.json